Time;durP1;ratioP1;P1;durP2;ratioP2;P2;SDS_P1;SDS_P2;PMS_P1;PMS_P2;Temp;Humidity;BMP_temperature;BMP_pressure;BME280_temperature;BME280_humidity;BME280_pressure;Samples;Min_cycle;Max_cycle;Signal;HPM_P1;HPM_P2
2023/12/16 00:02:04;;;;;;;5.90;3.23;;;;;;;-145.69;66.36;52361.22;4935617;29;20211;-81
2023/12/16 00:04:32;;;;;;;5.50;2.97;;;;;;;-145.69;65.98;52377.06;4931100;29;20204;-82
2023/12/16 00:06:58;;;;;;;8.93;3.53;;;;;;;-145.69;66.41;52394.88;4934043;29;20242;-80
2023/12/16 00:09:25;;;;;;;5.03;2.80;;;;;;;-145.69;67.26;52396.84;4933238;29;20235;-81
2023/12/16 00:11:51;;;;;;;5.33;3.10;;;;;;;-145.69;67.65;52373.09;4935234;29;20204;-82
2023/12/16 00:14:17;;;;;;;4.67;3.20;;;;;;;-145.69;68.06;52373.09;4935664;29;20210;-81
2023/12/16 00:16:45;;;;;;;4.27;2.80;;;;;;;-145.69;68.47;52384.97;4936265;29;20204;-81
2023/12/16 00:19:12;;;;;;;4.87;2.73;;;;;;;-145.69;68.15;52394.88;4936509;29;20231;-81
2023/12/16 00:21:40;;;;;;;3.30;2.27;;;;;;;-145.69;67.87;52392.91;4936547;29;20211;-81
2023/12/16 00:24:07;;;;;;;5.43;3.00;;;;;;;-145.69;67.92;52422.59;4935704;29;20211;-80
2023/12/16 00:26:34;;;;;;;5.57;2.90;;;;;;;-145.69;67.33;52400.81;4936133;29;20262;-80
2023/12/16 00:29:00;;;;;;;5.13;2.90;;;;;;;-145.69;67.24;52384.97;4936765;29;20551;-81
2023/12/16 00:31:27;;;;;;;3.87;2.73;;;;;;;-145.69;67.75;52410.72;4936165;29;20199;-81
2023/12/16 00:33:54;;;;;;;6.77;2.87;;;;;;;-145.69;68.15;52390.91;4936095;29;20209;-80
2023/12/16 00:36:20;;;;;;;3.53;2.73;;;;;;;-145.69;67.87;52390.91;4933936;29;20203;-81
2023/12/16 00:38:48;;;;;;;5.33;2.60;;;;;;;-145.69;68.21;52416.66;4936161;29;20207;-81
2023/12/16 00:41:14;;;;;;;4.70;2.73;;;;;;;-145.69;68.27;52416.66;4936149;29;20211;-81
2023/12/16 00:43:41;;;;;;;5.17;3.03;;;;;;;-145.69;68.46;52404.78;4936011;29;20210;-81
2023/12/16 00:46:08;;;;;;;5.13;2.87;;;;;;;-145.69;68.20;52424.59;4936203;29;20636;-81
2023/12/16 00:48:35;;;;;;;5.97;2.50;;;;;;;-145.69;66.96;52359.22;4935100;29;20231;-82
2023/12/16 00:51:02;;;;;;;4.67;2.60;;;;;;;-145.69;66.94;52440.44;4936006;29;20214;-82
2023/12/16 00:53:28;;;;;;;4.23;2.83;;;;;;;-145.69;67.28;52446.38;4935701;29;20239;-82
2023/12/16 00:55:56;;;;;;;4.23;2.57;;;;;;;-145.69;67.72;52440.44;4935979;29;20204;-81
2023/12/16 00:58:23;;;;;;;4.67;3.23;;;;;;;-145.69;67.10;52390.91;4935876;29;20214;-81
2023/12/16 01:00:49;;;;;;;4.80;2.73;;;;;;;-145.69;67.84;52400.81;4935829;29;20214;-81
2023/12/16 01:03:15;;;;;;;5.83;2.97;;;;;;;-145.69;67.77;52428.53;4935252;29;20567;-82
2023/12/16 01:05:42;;;;;;;5.53;2.90;;;;;;;-145.69;67.59;52410.72;4935498;29;20214;-82
2023/12/16 01:08:08;;;;;;;5.27;3.13;;;;;;;-145.69;67.60;52450.31;4935361;29;20253;-81
2023/12/16 01:10:35;;;;;;;6.43;3.23;;;;;;;-145.69;68.11;52400.81;4935581;29;20211;-81
2023/12/16 01:13:03;;;;;;;4.47;3.00;;;;;;;-145.69;68.07;52458.25;4935328;29;20214;-82
2023/12/16 01:15:29;;;;;;;5.40;3.30;;;;;;;-145.69;67.83;52414.69;4935534;29;20296;-81
2023/12/16 01:17:56;;;;;;;6.10;3.03;;;;;;;-145.69;67.63;52428.53;4935765;29;20207;-81
2023/12/16 01:20:22;;;;;;;5.17;3.27;;;;;;;-145.69;67.87;52446.38;4935307;29;20210;-81
2023/12/16 01:22:49;;;;;;;5.77;3.10;;;;;;;-145.69;68.47;52444.38;4934772;29;20195;-81
2023/12/16 01:25:15;;;;;;;5.67;2.80;;;;;;;-145.69;68.09;52464.19;4934847;29;20215;-82
2023/12/16 01:27:42;;;;;;;4.13;2.80;;;;;;;-145.69;67.94;52432.50;4934351;29;20224;-81
2023/12/16 01:30:10;;;;;;;5.97;2.63;;;;;;;-145.69;68.50;52383.00;4935657;29;20203;-81
2023/12/16 01:32:37;;;;;;;6.43;3.27;;;;;;;-145.69;69.64;52390.91;4935194;29;20207;-82
2023/12/16 01:35:04;;;;;;;6.30;3.20;;;;;;;-145.69;69.64;52418.63;4935586;29;20230;-82
2023/12/16 01:37:30;;;;;;;6.37;3.43;;;;;;;-145.69;69.91;52406.75;4936209;29;20207;-81
2023/12/16 01:39:59;;;;;;;6.33;3.93;;;;;;;-145.69;70.52;52404.78;4939039;29;20207;-80
2023/12/16 01:42:25;;;;;;;6.03;3.07;;;;;;;-145.69;69.88;52406.75;4939482;29;20203;-80
2023/12/16 01:44:52;;;;;;;6.83;3.10;;;;;;;-145.69;69.99;52428.53;4938992;29;20214;-81
2023/12/16 01:47:20;;;;;;;6.67;3.23;;;;;;;-145.69;69.96;52386.97;4939063;29;20588;-80
2023/12/16 01:49:47;;;;;;;5.20;2.93;;;;;;;-145.69;69.17;52428.53;4938951;29;20204;-80
2023/12/16 01:52:14;;;;;;;6.23;3.50;;;;;;;-145.69;69.93;52438.44;4939309;29;20203;-80
2023/12/16 01:54:41;;;;;;;5.33;3.20;;;;;;;-145.69;69.89;52418.63;4926112;29;20211;-81
2023/12/16 01:57:08;;;;;;;4.83;3.33;;;;;;;-145.69;69.61;52420.63;4919937;29;20215;-80
2023/12/16 01:59:34;;;;;;;7.27;3.77;;;;;;;-145.69;69.33;52400.81;4919929;29;20828;-80
2023/12/16 02:02:01;;;;;;;6.20;3.07;;;;;;;-145.69;69.08;52454.28;4919988;29;20651;-80
2023/12/16 02:04:29;;;;;;;8.17;3.20;;;;;;;-145.69;68.84;52418.63;4919836;29;20231;-81
2023/12/16 02:06:56;;;;;;;6.53;3.37;;;;;;;-145.69;69.02;52396.84;4922181;29;20200;-80
2023/12/16 02:09:23;;;;;;;6.38;3.60;;;;;;;-145.69;69.88;52460.22;4919210;29;20455;-80
2023/12/16 02:11:50;;;;;;;5.83;3.67;;;;;;;-145.69;69.29;52408.75;4919676;29;20558;-80
2023/12/16 02:14:16;;;;;;;4.60;3.03;;;;;;;-145.69;69.02;52442.41;4927402;29;20227;-81
2023/12/16 02:16:43;;;;;;;6.90;3.43;;;;;;;-145.69;69.50;52418.63;4938610;29;20655;-80
2023/12/16 02:19:13;;;;;;;7.27;3.10;;;;;;;-145.69;69.36;52424.59;4938778;29;20204;-80
2023/12/16 02:21:41;;;;;;;5.90;2.87;;;;;;;-145.69;69.76;52390.91;4938612;29;20210;-80
2023/12/16 02:24:08;;;;;;;8.63;3.40;;;;;;;-145.69;70.03;52394.88;4937989;29;20207;-80
2023/12/16 02:26:35;;;;;;;8.27;2.80;;;;;;;-145.69;70.20;52414.69;4938427;29;20208;-80
2023/12/16 02:29:01;;;;;;;4.87;2.97;;;;;;;-145.69;69.98;52359.22;4938177;29;20235;-80
2023/12/16 02:31:29;;;;;;;5.40;3.07;;;;;;;-145.69;69.91;52430.53;4938555;29;20598;-80
2023/12/16 02:33:55;;;;;;;6.53;3.40;;;;;;;-145.69;69.76;52414.69;4938134;29;20251;-81
2023/12/16 02:36:21;;;;;;;5.80;2.93;;;;;;;-145.69;69.02;52432.50;4938077;29;20203;-80
2023/12/16 02:42:11;;;;;;;6.10;2.97;;;;;;;-145.69;69.39;52434.47;4919277;29;20334;-81
2023/12/16 02:44:37;;;;;;;6.17;3.10;;;;;;;-145.69;69.41;52388.94;4953757;29;20650;-81
2023/12/16 02:47:04;;;;;;;5.43;3.73;;;;;;;-145.69;69.61;52400.81;4957179;29;20206;-80
2023/12/16 02:49:30;;;;;;;5.47;3.40;;;;;;;-145.69;69.12;52450.31;4956855;28;20210;-81
2023/12/16 02:51:58;;;;;;;5.83;3.10;;;;;;;-145.69;69.26;52410.72;4957343;29;20552;-81
2023/12/16 02:54:24;;;;;;;8.40;3.67;;;;;;;-145.69;69.06;52418.63;4948548;29;20196;-81
2023/12/16 02:56:51;;;;;;;5.60;3.20;;;;;;;-145.69;69.41;52434.47;4938023;29;20591;-80
2023/12/16 02:59:18;;;;;;;8.93;3.60;;;;;;;-145.69;69.30;52416.66;4937951;29;20208;-80
2023/12/16 03:01:45;;;;;;;6.53;3.33;;;;;;;-145.69;69.22;52428.53;4937926;29;20211;-80
2023/12/16 03:04:11;;;;;;;6.37;3.83;;;;;;;-145.69;68.99;52424.59;4937726;29;20210;-80
2023/12/16 03:06:43;;;;;;;12.47;4.27;;;;;;;-145.69;69.02;52404.78;4937033;29;20278;-80
2023/12/16 03:09:10;;;;;;;7.43;3.80;;;;;;;-145.69;68.92;52442.41;4937237;29;20251;-82
2023/12/16 03:11:36;;;;;;;6.10;3.43;;;;;;;-145.69;69.18;52408.75;4937655;29;20722;-82
2023/12/16 03:14:02;;;;;;;6.23;3.63;;;;;;;-145.69;69.67;52450.31;4937591;29;20721;-82
2023/12/16 03:16:31;;;;;;;7.67;3.13;;;;;;;-145.69;69.88;52438.44;4937408;29;20199;-81
2023/12/16 03:18:58;;;;;;;4.73;3.37;;;;;;;-145.69;70.13;52428.53;4937623;29;20310;-82
2023/12/16 03:21:25;;;;;;;7.53;3.47;;;;;;;-145.69;68.53;52404.78;4937485;29;20611;-82
2023/12/16 03:23:51;;;;;;;6.07;3.83;;;;;;;-145.69;68.62;52377.06;4935642;29;20294;-81
2023/12/16 03:26:19;;;;;;;7.57;3.70;;;;;;;-145.69;68.67;52408.75;4937225;29;20255;-82
2023/12/16 03:28:45;;;;;;;7.07;3.53;;;;;;;-145.69;68.67;52418.63;4937459;29;20235;-81
2023/12/16 03:31:12;;;;;;;8.10;3.87;;;;;;;-145.69;69.01;52452.31;4937552;29;20270;-81
2023/12/16 03:33:39;;;;;;;5.23;3.60;;;;;;;-145.69;68.60;52422.59;4936856;29;20210;-82
2023/12/16 03:36:08;;;;;;;6.53;3.80;;;;;;;-145.69;68.89;52396.84;4936623;29;20263;-82
2023/12/16 03:38:35;;;;;;;8.83;4.43;;;;;;;-145.69;69.14;52396.84;4936750;29;20214;-82
2023/12/16 03:41:01;;;;;;;8.13;4.23;;;;;;;-145.69;68.67;52396.84;4937198;29;20603;-81
2023/12/16 03:43:28;;;;;;;7.13;4.10;;;;;;;-145.69;69.14;52396.84;4936983;29;20208;-82
2023/12/16 03:45:54;;;;;;;9.07;4.37;;;;;;;-145.69;69.21;52430.53;4936430;29;20210;-79
2023/12/16 03:48:21;;;;;;;10.10;4.17;;;;;;;-145.69;69.53;52408.75;4936787;29;20282;-82
2023/12/16 03:50:49;;;;;;;6.83;3.70;;;;;;;-145.69;69.41;52392.91;4937145;29;20211;-80
2023/12/16 03:53:16;;;;;;;8.00;3.67;;;;;;;-145.69;69.64;52392.91;4937062;29;20218;-81
2023/12/16 03:55:43;;;;;;;7.90;4.23;;;;;;;-145.69;68.85;52412.69;4936316;29;20215;-80
2023/12/16 03:58:09;;;;;;;7.60;3.73;;;;;;;-145.69;68.74;52379.03;4936829;29;20671;-80
2023/12/16 04:00:36;;;;;;;8.47;3.70;;;;;;;-145.69;69.17;52452.31;4936123;29;20207;-80
2023/12/16 04:03:02;;;;;;;7.03;3.97;;;;;;;-145.69;69.11;52408.75;4933620;29;20803;-80
2023/12/16 04:05:29;;;;;;;6.93;3.70;;;;;;;-145.69;69.34;52392.91;4936665;29;20211;-80
2023/12/16 04:07:57;;;;;;;8.77;4.90;;;;;;;-145.69;68.69;52367.16;4936173;29;20235;-80
2023/12/16 04:10:23;;;;;;;6.80;3.87;;;;;;;-145.69;69.00;52412.69;4936721;29;20215;-80
2023/12/16 04:12:50;;;;;;;7.47;3.63;;;;;;;-145.69;68.99;52416.66;4936618;29;20203;-80
2023/12/16 04:15:16;;;;;;;6.50;3.60;;;;;;;-145.69;69.18;52406.75;4936571;29;20211;-80
2023/12/16 04:17:43;;;;;;;7.27;3.60;;;;;;;-145.69;69.26;52408.75;4936192;29;20211;-80
2023/12/16 04:20:10;;;;;;;5.97;3.40;;;;;;;-145.69;69.02;52410.72;4936437;29;20207;-80
2023/12/16 04:22:37;;;;;;;5.33;3.43;;;;;;;-145.69;69.02;52388.94;4936394;29;20199;-80
2023/12/16 04:25:10;;;;;;;9.53;4.13;;;;;;;-145.69;68.62;52388.94;4936229;29;20204;-81
2023/12/16 04:27:37;;;;;;;5.50;3.33;;;;;;;-145.69;68.73;52381.00;4936240;29;20254;-80
2023/12/16 04:30:04;;;;;;;8.70;4.23;;;;;;;-145.69;68.00;52388.94;4936242;29;20208;-80
2023/12/16 04:32:31;;;;;;;7.30;3.97;;;;;;;-145.69;68.87;52418.63;4936158;29;20290;-80
2023/12/16 04:34:57;;;;;;;8.90;3.80;;;;;;;-145.69;68.31;52412.69;4936272;29;20207;-80
2023/12/16 04:37:24;;;;;;;6.47;3.63;;;;;;;-145.69;68.94;52377.06;4936031;29;20215;-81
2023/12/16 04:39:50;;;;;;;10.13;3.67;;;;;;;-145.69;69.26;52384.97;4935644;29;20290;-80
2023/12/16 04:42:18;;;;;;;8.53;4.50;;;;;;;-145.69;69.01;52384.97;4936266;29;20267;-79
2023/12/16 04:44:46;;;;;;;7.57;3.70;;;;;;;-145.69;69.18;52410.72;4935886;29;20210;-80
2023/12/16 04:47:13;;;;;;;6.87;4.10;;;;;;;-145.69;68.94;52412.69;4935918;29;20203;-80
2023/12/16 04:49:40;;;;;;;6.87;3.73;;;;;;;-145.69;69.36;52416.66;4936034;29;20255;-80
2023/12/16 04:52:07;;;;;;;7.00;4.10;;;;;;;-145.69;69.40;52428.53;4936111;29;20212;-80
2023/12/16 04:54:33;;;;;;;7.87;4.10;;;;;;;-145.69;68.92;52383.00;4933778;29;20192;-80
2023/12/16 04:56:59;;;;;;;5.90;3.60;;;;;;;-145.69;69.16;52388.94;4935445;29;20200;-79
2023/12/16 04:59:27;;;;;;;8.47;3.70;;;;;;;-145.69;69.80;52392.91;4935695;29;20246;-79
2023/12/16 05:01:54;;;;;;;7.97;4.00;;;;;;;-145.69;68.97;52381.00;4935717;29;20207;-81
2023/12/16 05:04:20;;;;;;;9.47;4.60;;;;;;;-145.69;68.65;52430.53;4935205;29;20895;-80
2023/12/16 05:06:46;;;;;;;7.43;4.30;;;;;;;-145.69;68.99;52402.78;4935371;29;20211;-79
2023/12/16 05:09:13;;;;;;;7.50;4.07;;;;;;;-145.69;69.21;52440.44;4935362;29;20302;-79
2023/12/16 05:11:40;;;;;;;11.40;4.73;;;;;;;-145.69;68.75;52408.75;4935929;29;20207;-79
2023/12/16 05:14:06;;;;;;;6.50;4.00;;;;;;;-145.69;68.87;52394.88;4935742;29;20207;-79
2023/12/16 05:16:34;;;;;;;6.93;3.90;;;;;;;-145.69;68.40;52396.84;4935438;29;20255;-79
2023/12/16 05:19:00;;;;;;;7.40;4.43;;;;;;;-145.69;68.95;52400.81;4935681;29;20207;-80
2023/12/16 05:21:27;;;;;;;7.90;3.93;;;;;;;-145.69;68.62;52392.91;4935777;29;20207;-79
2023/12/16 05:23:53;;;;;;;7.87;4.33;;;;;;;-145.69;68.65;52408.75;4935622;29;20218;-79
2023/12/16 05:26:21;;;;;;;7.07;3.97;;;;;;;-145.69;67.88;52398.84;4935796;29;20263;-80
2023/12/16 05:28:47;;;;;;;7.37;3.97;;;;;;;-145.69;67.38;52400.81;4935627;29;20235;-81
2023/12/16 05:31:14;;;;;;;11.63;4.27;;;;;;;-145.69;67.84;52369.13;4935753;29;20599;-82
2023/12/16 05:33:43;;;;;;;5.30;3.80;;;;;;;-145.69;67.40;52384.97;4935399;29;20203;-82
2023/12/16 05:36:10;;;;;;;6.17;3.70;;;;;;;-145.69;67.97;52390.91;4934336;29;20610;-80
2023/12/16 05:38:36;;;;;;;6.70;3.90;;;;;;;-145.69;67.31;52394.88;4935427;29;20220;-80
2023/12/16 05:41:03;;;;;;;6.57;3.50;;;;;;;-145.69;67.63;52388.94;4935727;29;20262;-81
2023/12/16 05:43:29;;;;;;;6.23;3.70;;;;;;;-145.69;67.75;52398.84;4935113;29;20218;-81
2023/12/16 05:45:56;;;;;;;7.20;3.50;;;;;;;-145.69;67.91;52404.78;4935385;29;20203;-82
2023/12/16 05:48:22;;;;;;;7.00;3.60;;;;;;;-145.69;67.67;52392.91;4935080;29;20231;-81
2023/12/16 05:50:50;;;;;;;6.50;3.90;;;;;;;-145.69;67.61;52402.78;4935710;29;20211;-81
2023/12/16 05:53:17;;;;;;;5.87;3.53;;;;;;;-145.69;67.98;52371.13;4935416;29;20211;-81
2023/12/16 05:55:45;;;;;;;6.37;3.60;;;;;;;-145.69;68.09;52386.97;4935573;29;20211;-81
2023/12/16 05:58:12;;;;;;;5.87;3.70;;;;;;;-145.69;67.72;52377.06;4935344;29;20243;-81
2023/12/16 06:00:38;;;;;;;5.53;3.37;;;;;;;-145.69;68.00;52371.13;4935357;29;20602;-80
2023/12/16 06:03:05;;;;;;;5.67;3.70;;;;;;;-145.69;68.22;52390.91;4935374;29;20211;-81
2023/12/16 06:05:31;;;;;;;7.17;4.03;;;;;;;-145.69;67.65;52383.00;4927411;29;20195;-81
2023/12/16 06:07:59;;;;;;;6.33;3.70;;;;;;;-145.69;67.53;52432.50;4916038;29;20208;-81
2023/12/16 06:10:25;;;;;;;6.87;4.00;;;;;;;-145.69;67.77;52420.63;4916284;29;20211;-81
2023/12/16 06:12:52;;;;;;;5.60;3.40;;;;;;;-145.69;67.42;52404.78;4918282;29;20855;-80
2023/12/16 06:15:18;;;;;;;6.27;4.00;;;;;;;-145.69;67.48;52375.06;4935286;29;20235;-81
2023/12/16 06:17:45;;;;;;;6.00;3.67;;;;;;;-145.69;67.67;52383.00;4930236;29;20234;-80
2023/12/16 06:20:12;;;;;;;9.23;4.00;;;;;;;-145.69;67.41;52383.00;4933299;29;20282;-81
2023/12/16 06:22:38;;;;;;;6.63;3.90;;;;;;;-145.69;67.40;52349.31;4932280;29;20211;-81
2023/12/16 06:25:07;;;;;;;7.90;3.80;;;;;;;-145.69;68.07;52384.97;4937535;29;20200;-82
2023/12/16 06:27:34;;;;;;;7.07;3.37;;;;;;;-145.69;67.65;52414.69;4938058;29;20262;-81
2023/12/16 06:30:00;;;;;;;7.70;4.10;;;;;;;-145.69;67.93;52410.72;4938572;29;20235;-81
2023/12/16 06:32:27;;;;;;;7.47;4.33;;;;;;;-145.69;68.00;52408.75;4936122;29;20592;-80
2023/12/16 06:34:53;;;;;;;7.57;4.10;;;;;;;-145.69;67.54;52359.22;4936302;29;20207;-81
2023/12/16 06:37:20;;;;;;;9.20;4.50;;;;;;;-145.69;67.10;52400.81;4938120;29;20196;-80
2023/12/16 06:39:46;;;;;;;7.20;3.90;;;;;;;-145.69;68.10;52384.97;4938220;29;20208;-80
2023/12/16 06:42:14;;;;;;;5.77;3.60;;;;;;;-145.69;68.03;52392.91;4937259;29;20651;-81
2023/12/16 06:44:40;;;;;;;8.60;4.27;;;;;;;-145.69;67.77;52404.78;4938430;29;20239;-81
2023/12/16 06:47:07;;;;;;;7.13;4.20;;;;;;;-145.69;68.05;52406.75;4937841;29;20562;-81
2023/12/16 06:49:33;;;;;;;7.27;4.33;;;;;;;-145.69;68.03;52408.75;4937796;29;20230;-81
2023/12/16 06:52:00;;;;;;;7.50;4.60;;;;;;;-145.69;67.84;52383.00;4937931;29;20259;-81
2023/12/16 06:54:26;;;;;;;6.27;3.87;;;;;;;-145.69;67.80;52400.81;4937782;29;20219;-81
2023/12/16 06:56:52;;;;;;;8.07;4.20;;;;;;;-145.69;67.55;52434.47;4937832;29;20235;-82
2023/12/16 06:59:20;;;;;;;7.30;4.33;;;;;;;-145.69;67.77;52402.78;4937925;29;20206;-82
2023/12/16 07:01:47;;;;;;;12.67;4.53;;;;;;;-145.69;66.93;52392.91;4937980;29;20199;-80
2023/12/16 07:04:13;;;;;;;7.80;4.23;;;;;;;-145.69;66.78;52394.88;4937679;29;20204;-80
2023/12/16 07:06:40;;;;;;;6.93;3.77;;;;;;;-145.69;66.76;52404.78;4937827;29;20202;-81
2023/12/16 07:09:06;;;;;;;6.90;4.00;;;;;;;-145.69;66.75;52420.63;4937556;29;20605;-80
2023/12/16 07:11:34;;;;;;;6.60;4.23;;;;;;;-145.69;66.54;52392.91;4937603;29;20226;-81
2023/12/16 07:14:00;;;;;;;7.37;4.17;;;;;;;-145.69;66.50;52406.75;4937900;29;20243;-80
2023/12/16 07:16:30;;;;;;;6.63;4.13;;;;;;;-145.69;66.59;52383.00;4937489;29;20207;-81
2023/12/16 07:18:57;;;;;;;5.83;4.00;;;;;;;-145.69;66.66;52424.59;4937586;29;20570;-80
2023/12/16 07:21:23;;;;;;;5.73;3.93;;;;;;;-145.69;67.38;52412.69;4937356;29;20683;-80
2023/12/16 07:23:50;;;;;;;7.43;4.30;;;;;;;-145.69;68.02;52420.63;4937553;29;20210;-81
2023/12/16 07:26:16;;;;;;;6.93;3.87;;;;;;;-145.69;67.42;52416.66;4937428;29;20211;-80
2023/12/16 07:28:42;;;;;;;8.50;4.37;;;;;;;-145.69;67.74;52392.91;4937120;29;20240;-81
2023/12/16 07:31:09;;;;;;;6.60;4.03;;;;;;;-145.69;67.90;52428.53;4937570;29;20207;-81
2023/12/16 07:33:37;;;;;;;7.10;3.87;;;;;;;-145.69;68.07;52412.69;4937471;29;20539;-81
2023/12/16 07:36:04;;;;;;;8.37;3.57;;;;;;;-145.69;67.79;52420.63;4935972;29;20622;-81
2023/12/16 07:38:30;;;;;;;5.67;3.27;;;;;;;-145.69;67.81;52375.06;4937013;29;20559;-81
2023/12/16 07:40:57;;;;;;;7.10;3.80;;;;;;;-145.69;67.23;52430.53;4937385;29;20540;-81
2023/12/16 07:43:23;;;;;;;5.77;3.47;;;;;;;-145.69;67.42;52394.88;4937169;29;20294;-81
2023/12/16 07:45:50;;;;;;;4.87;3.13;;;;;;;-145.69;67.44;52444.38;4936724;29;20208;-80
2023/12/16 07:48:15;;;;;;;5.17;3.60;;;;;;;-145.69;67.30;52400.81;4937023;29;20218;-81
2023/12/16 07:50:43;;;;;;;5.50;3.47;;;;;;;-145.69;67.92;52424.59;4936999;29;20631;-81
2023/12/16 07:53:10;;;;;;;8.57;3.90;;;;;;;-145.69;67.65;52404.78;4936958;29;20298;-81
2023/12/16 07:55:36;;;;;;;8.87;4.67;;;;;;;-145.69;68.59;52400.81;4936997;29;20208;-81
2023/12/16 07:58:02;;;;;;;7.40;4.67;;;;;;;-145.69;69.17;52410.72;4936969;29;20248;-80
2023/12/16 08:00:29;;;;;;;7.27;4.27;;;;;;;-145.69;69.14;52392.91;4936678;29;20200;-81
2023/12/16 08:02:55;;;;;;;5.57;3.37;;;;;;;-145.69;69.65;52406.75;4936794;29;20654;-80
2023/12/16 08:05:22;;;;;;;7.00;3.60;;;;;;;-145.69;69.10;52386.97;4934866;29;20208;-81
2023/12/16 08:07:50;;;;;;;7.07;4.00;;;;;;;-145.69;69.47;52400.81;4935821;29;20234;-81
2023/12/16 08:10:17;;;;;;;11.47;4.57;;;;;;;-145.69;69.73;52408.75;4936225;29;20318;-80
2023/12/16 08:12:43;;;;;;;8.67;4.67;;;;;;;-145.69;69.20;52422.59;4936758;29;20204;-81
2023/12/16 08:15:10;;;;;;;9.20;4.93;;;;;;;-145.69;69.34;52384.97;4936525;29;20290;-81
2023/12/16 08:17:37;;;;;;;7.63;4.43;;;;;;;-145.69;69.35;52422.59;4936470;29;20207;-81
2023/12/16 08:20:04;;;;;;;7.50;4.43;;;;;;;-145.69;69.58;52392.91;4936351;29;20227;-80
2023/12/16 08:22:30;;;;;;;8.80;4.20;;;;;;;-145.69;70.00;52414.69;4936661;29;20246;-81
2023/12/16 08:24:58;;;;;;;8.93;4.40;;;;;;;-145.69;69.87;52373.09;4936278;29;20620;-81
2023/12/16 08:27:25;;;;;;;7.37;4.47;;;;;;;-145.69;70.32;52392.91;4936347;29;20663;-82
2023/12/16 08:29:51;;;;;;;9.13;5.27;;;;;;;-145.69;70.02;52390.91;4936268;29;20244;-81
2023/12/16 08:32:18;;;;;;;12.47;6.07;;;;;;;-145.69;69.94;52412.69;4936058;29;20552;-81
2023/12/16 08:34:44;;;;;;;10.33;5.23;;;;;;;-145.69;69.77;52386.97;4935746;29;20203;-81
2023/12/16 08:37:11;;;;;;;9.67;4.73;;;;;;;-145.69;69.91;52410.72;4935574;29;20211;-80
2023/12/16 08:39:37;;;;;;;8.13;4.73;;;;;;;-145.69;69.69;52386.97;4936151;29;20215;-80
2023/12/16 08:42:05;;;;;;;8.10;4.40;;;;;;;-145.69;68.52;52418.63;4936182;29;20212;-80
2023/12/16 08:44:32;;;;;;;8.57;5.00;;;;;;;-145.69;68.76;52402.78;4935450;29;20203;-80
2023/12/16 08:46:58;;;;;;;7.60;4.10;;;;;;;-145.69;68.65;52404.78;4935679;29;20774;-80
2023/12/16 08:49:25;;;;;;;7.13;4.17;;;;;;;-145.69;68.43;52412.69;4936078;29;20227;-80
2023/12/16 08:51:52;;;;;;;5.03;2.90;;;;;;;-145.69;68.23;52412.69;4935477;29;20203;-80
2023/12/16 08:54:19;;;;;;;5.57;2.87;;;;;;;-145.69;68.46;52404.78;4935799;29;20211;-80
2023/12/16 08:56:46;;;;;;;4.47;2.67;;;;;;;-145.69;68.21;52420.63;4935986;29;20258;-80
2023/12/16 08:59:14;;;;;;;4.40;2.60;;;;;;;-145.69;67.70;52406.75;4935560;29;20283;-80
2023/12/16 09:01:41;;;;;;;5.70;3.63;;;;;;;-145.69;67.97;52392.91;4935483;29;20203;-80
2023/12/16 09:04:07;;;;;;;5.73;3.90;;;;;;;-145.69;68.58;52404.78;4935621;29;20195;-80
2023/12/16 09:06:37;;;;;;;6.20;3.63;;;;;;;-145.69;68.91;52424.59;4933954;29;20215;-80
2023/12/16 09:09:04;;;;;;;3.47;2.80;;;;;;;-145.69;68.20;52388.94;4935476;29;20235;-80
2023/12/16 09:11:30;;;;;;;2.83;2.53;;;;;;;-145.69;67.89;52428.53;4935761;29;20563;-81
2023/12/16 09:13:56;;;;;;;1.97;1.70;;;;;;;-145.69;68.04;52416.66;4935731;29;20207;-80
2023/12/16 09:16:24;;;;;;;1.87;1.50;;;;;;;-145.69;68.09;52414.69;4933238;29;20263;-79
2023/12/16 09:18:51;;;;;;;2.67;1.60;;;;;;;-145.69;67.35;52373.09;4935221;29;20200;-79
2023/12/16 09:21:18;;;;;;;3.10;1.47;;;;;;;-145.69;67.65;52416.66;4935691;29;20212;-79
2023/12/16 09:23:44;;;;;;;2.37;1.83;;;;;;;-145.69;67.34;52384.97;4934034;29;20536;-79
2023/12/16 09:26:11;;;;;;;4.20;3.80;;;;;;;-145.69;67.30;52408.75;4919185;29;20200;-79
2023/12/16 09:28:37;;;;;;;4.30;3.57;;;;;;;-145.69;68.00;52388.94;4926639;29;20200;-80
2023/12/16 09:31:04;;;;;;;3.90;2.50;;;;;;;-145.69;68.17;52381.00;4935365;29;20235;-79
2023/12/16 09:33:32;;;;;;;3.47;2.40;;;;;;;-145.69;68.45;52390.91;4934749;29;20646;-79
2023/12/16 09:35:58;;;;;;;4.87;3.10;;;;;;;-145.69;68.46;52388.94;4935555;29;20591;-78
2023/12/16 09:38:25;;;;;;;3.73;2.67;;;;;;;-145.69;67.92;52408.75;4934693;29;20211;-80
2023/12/16 09:40:52;;;;;;;3.67;2.47;;;;;;;-145.69;68.27;52400.81;4935180;29;20203;-80
2023/12/16 09:43:18;;;;;;;4.23;2.73;;;;;;;-145.69;67.91;52375.06;4935030;29;20207;-80
2023/12/16 09:45:46;;;;;;;2.77;1.97;;;;;;;-145.69;67.92;52410.72;4929661;29;20263;-79
2023/12/16 09:48:14;;;;;;;4.20;3.00;;;;;;;-145.69;68.09;52410.72;4928469;29;20196;-79
2023/12/16 09:50:42;;;;;;;5.20;3.00;;;;;;;-145.69;68.16;52377.06;4916098;29;20291;-78
2023/12/16 09:53:08;;;;;;;5.87;3.20;;;;;;;-145.69;67.85;52381.00;4916101;29;20201;-78
2023/12/16 09:55:35;;;;;;;5.70;3.67;;;;;;;-145.69;68.08;52412.69;4916449;29;20227;-80
2023/12/16 09:58:03;;;;;;;5.93;3.90;;;;;;;-145.69;68.19;52369.13;4916231;29;20200;-79
2023/12/16 10:00:31;;;;;;;8.20;5.20;;;;;;;-145.69;68.59;52375.06;4919898;29;20739;-79
2023/12/16 10:02:57;;;;;;;8.77;4.93;;;;;;;-145.69;68.23;52373.09;4922354;29;20241;-79
2023/12/16 10:05:28;;;;;;;12.50;6.27;;;;;;;-145.69;68.01;52369.13;4919983;29;20212;-79
2023/12/16 10:08:01;;;;;;;12.70;6.70;;;;;;;-145.69;67.82;52428.53;4924252;29;20218;-79
2023/12/16 10:10:27;;;;;;;8.57;4.20;;;;;;;-145.69;67.83;52408.75;4938910;29;20231;-79
2023/12/16 10:12:54;;;;;;;7.00;3.60;;;;;;;-145.69;68.32;52396.84;4938659;29;20485;-79
2023/12/16 10:15:38;;;;;;;4.63;2.80;;;;;;;-145.69;68.29;52377.06;4938546;29;20270;-79
2023/12/16 10:18:06;;;;;;;2.90;2.00;;;;;;;-145.69;68.70;52410.72;4933668;29;20204;-79
2023/12/16 10:20:32;;;;;;;3.80;2.23;;;;;;;-145.69;68.42;52404.78;4919667;29;20246;-78
2023/12/16 10:23:02;;;;;;;3.60;2.57;;;;;;;-145.69;68.49;52381.00;4919510;29;20204;-79
2023/12/16 10:25:30;;;;;;;3.30;2.03;;;;;;;-145.69;67.97;52388.94;4918942;29;20228;-79
2023/12/16 10:28:00;;;;;;;3.40;2.37;;;;;;;-145.69;68.35;52400.81;4922448;29;20219;-78
2023/12/16 10:30:27;;;;;;;3.30;1.90;;;;;;;-145.69;67.72;52369.13;4937652;29;20231;-79
2023/12/16 10:32:54;;;;;;;2.40;1.80;;;;;;;-145.69;68.17;52390.91;4936409;29;20659;-78
2023/12/16 10:35:23;;;;;;;3.90;2.87;;;;;;;-145.69;68.01;52381.00;4919240;29;20345;-78
2023/12/16 10:37:50;;;;;;;6.00;3.60;;;;;;;-145.69;67.64;52416.66;4919044;29;20219;-78
2023/12/16 10:40:19;;;;;;;6.13;3.47;;;;;;;-145.69;66.91;52377.06;4919012;29;20204;-79
2023/12/16 10:42:45;;;;;;;7.63;3.30;;;;;;;-145.69;67.34;52369.13;4919202;29;20236;-78
2023/12/16 10:45:13;;;;;;;8.57;4.10;;;;;;;-145.69;66.89;52369.13;4919165;29;20593;-78
2023/12/16 10:47:41;;;;;;;5.30;3.13;;;;;;;-145.69;66.37;52408.75;4933734;29;20730;-79
2023/12/16 10:50:07;;;;;;;4.13;2.53;;;;;;;-145.69;66.41;52383.00;4935637;29;20259;-79
2023/12/16 10:52:38;;;;;;;4.50;2.50;;;;;;;-145.69;66.33;52349.31;4938091;29;20200;-78
2023/12/16 10:55:09;;;;;;;3.60;2.70;;;;;;;-145.69;67.26;52361.22;4937017;29;20497;-78
2023/12/16 10:57:42;;;;;;;2.90;1.80;;;;;;;-145.69;65.86;52347.34;4937904;29;20284;-78
2023/12/16 11:00:12;;;;;;;3.30;1.80;;;;;;;-145.69;65.73;52341.41;4936211;29;20259;-77
2023/12/16 11:02:47;;;;;;;3.57;1.93;;;;;;;-145.69;64.41;52349.31;4937332;29;20206;-78
2023/12/16 11:05:34;;;;;;;2.17;1.60;;;;;;;-145.69;62.87;52371.13;4937622;29;20411;-77
2023/12/16 11:08:04;;;;;;;1.80;1.57;;;;;;;-145.69;62.87;52361.22;4918841;29;20254;-79
2023/12/16 11:10:33;;;;;;;1.23;1.10;;;;;;;-145.69;61.59;52394.88;4937459;29;20310;-79
2023/12/16 11:13:03;;;;;;;1.73;1.30;;;;;;;-145.69;60.17;52369.13;4937098;29;20658;-78
2023/12/16 11:15:36;;;;;;;3.23;2.10;;;;;;;-145.69;60.54;52349.31;4923069;29;20207;-78
2023/12/16 11:18:12;;;;;;;1.60;1.50;;;;;;;-145.69;59.37;52369.13;4933640;29;20204;-79
2023/12/16 11:20:49;;;;;;;1.43;1.33;;;;;;;-145.69;60.62;52377.06;4918555;29;20235;-78